Frasnes-lez-Buissenal, Belgium
Current Conditions -  °F | °C
As of 3:25 PM on Saturday 22 Nov 2014 (Local Time) from EBCV Reporting Station
Broken Clouds Broken Clouds  
Wind Chill: 54°   Ceiling: 17000
Heat Index: 54°   Visibility: 6mi
Dew Point: 50°   Wind: 6mph
Humidity: 88%   Direction: 160°SSE
Pressure: 30"   Gusts: NA
Location:  50.67°N, 3.62°E
Report Text: EBCV 221425Z AUTO 16005KT 9999 BKN170/// 12/10 Q1016 BLU
Loading
Personal Weather Stations






























Interactive Weather Map New forecast layout! Learn more

10-Day Weather Forecast

Advertisements
Track Severe Weather on mobile